KSMO/SMO METAR and TAF weather

Enter ICAO airport designator
Station Type Date Time Source
KSMO METAR 2020/09/15 05:51 UTC NOAA

KSMO 150551Z AUTO 00000KT 4SM BR FU CLR 18/16 A3000 RMK AO2 SLP157 T01780156 10233 20178 51018


Station Type Date Time Source
KSMO Decoded METAR 2020/09/15 05:51 UTC NOAA

SANTA MONICA MUNICIPAL AIRPORT , CA, United States (KSMO) 34-01N 118-27W 57M
Sep 15, 2020 - 01:51 AM EDT / 2020.09.15 0551 UTC
Wind: Calm:0
Visibility: 4 mile(s):0
Sky conditions: clear
Weather: mist; smoke
Temperature: 64.0 F (17.8 C)
Dew Point: 60.1 F (15.6 C)
Relative Humidity: 86%
Pressure (altimeter): 30 in. Hg (1015 hPa)
Pressure tendency: 0.05 inches (1.8 hPa) higher than three hours ago
ob: KSMO 150551Z AUTO 00000KT 4SM BR FU CLR 18/16 A3000 RMK AO2 SLP157 T01780156 10233 20178 51018
cycle: 6

Station Type Date Time Source
KSMO TAF 2020/09/18 18:37 UTC NOAA

TAF KSMO 181737Z 1818/1918 VRB03KT P6SM BKN150
FM181900 23008KT P6SM SCT150
FM190300 VRB03KT P6SM SCT150
FM191700 23009KT P6SM SCT150
AMD NOT SKED

Example: see airport list